createdAt,value
2023-05-09T00:01:31.647Z,12.25
2023-05-09T00:03:33.409Z,11.60
2023-05-09T00:05:35.139Z,10.13
2023-05-09T00:07:36.796Z,9.68
2023-05-09T00:09:38.417Z,9.75
2023-05-09T00:11:40.133Z,10.23
2023-05-09T00:13:42.058Z,11.10
2023-05-09T00:15:44.374Z,9.63
2023-05-09T00:17:46.586Z,11.70
2023-05-09T00:19:49.703Z,11.25
2023-05-09T00:21:52.051Z,11.57
2023-05-09T00:23:53.654Z,12.30
2023-05-09T00:25:55.396Z,11.93
2023-05-09T00:27:57.187Z,11.63
2023-05-09T00:29:58.860Z,10.73
2023-05-09T00:32:00.458Z,10.30
2023-05-09T00:34:02.409Z,12.27
2023-05-09T00:36:04.319Z,10.80
2023-05-09T00:38:06.384Z,10.98
2023-05-09T00:40:09.285Z,10.65
2023-05-09T00:42:10.916Z,10.20
2023-05-09T00:44:12.673Z,11.50
2023-05-09T00:46:14.358Z,10.20
2023-05-09T00:48:16.676Z,11.10
2023-05-09T00:50:18.339Z,10.50
2023-05-09T00:52:23.468Z,10.73
2023-05-09T00:54:25.576Z,10.93
2023-05-09T00:56:27.632Z,11.00
2023-05-09T00:58:30.071Z,12.02
2023-05-09T01:00:32.323Z,10.13
2023-05-09T01:02:33.998Z,10.32
2023-05-09T01:04:35.714Z,10.30
2023-05-09T01:06:41.804Z,10.15
2023-05-09T01:08:45.503Z,9.65
2023-05-09T01:10:57.182Z,11.25
2023-05-09T01:13:12.447Z,10.35
2023-05-09T01:15:34.693Z,10.20
2023-05-09T01:17:39.483Z,10.65
2023-05-09T01:19:56.755Z,10.60
2023-05-09T01:21:59.509Z,10.63
2023-05-09T01:24:22.980Z,11.63
2023-05-09T01:26:33.723Z,11.75
2023-05-09T01:29:00.288Z,11.52
2023-05-09T01:31:03.733Z,11.48
2023-05-09T01:33:07.471Z,11.65
2023-05-09T01:35:13.661Z,10.80
2023-05-09T01:37:16.402Z,10.05
2023-05-09T01:39:18.369Z,9.75
2023-05-09T01:41:22.528Z,11.35
2023-05-09T01:43:26.043Z,9.82
2023-05-09T01:45:28.397Z,10.05
2023-05-09T01:47:30.110Z,10.23
2023-05-09T01:49:32.946Z,10.45
2023-05-09T01:51:35.241Z,10.43
2023-05-09T01:53:36.962Z,9.55
2023-05-09T01:55:39.924Z,11.30
2023-05-09T01:57:42.511Z,10.15
2023-05-09T01:59:45.050Z,9.65
2023-05-09T02:01:47.125Z,11.68
2023-05-09T02:03:52.582Z,11.15
2023-05-09T02:05:55.821Z,9.23
2023-05-09T02:07:58.671Z,10.20
2023-05-09T02:10:00.895Z,9.68
2023-05-09T02:12:04.640Z,11.45
2023-05-09T02:14:06.438Z,10.15
2023-05-09T02:16:08.328Z,10.60
2023-05-09T02:18:10.061Z,10.38
2023-05-09T02:20:11.834Z,10.43
2023-05-09T02:22:13.849Z,11.05
2023-05-09T02:24:15.565Z,9.52
2023-05-09T02:26:17.636Z,10.50
2023-05-09T02:28:19.920Z,9.85
2023-05-09T02:30:25.397Z,10.90
2023-05-09T02:32:29.429Z,12.20
2023-05-09T02:34:31.500Z,10.07
2023-05-09T02:36:33.116Z,10.13
2023-05-09T02:38:35.740Z,10.63
2023-05-09T02:40:37.361Z,10.27
2023-05-09T02:42:39.055Z,10.95
2023-05-09T02:44:41.015Z,9.85
2023-05-09T02:46:42.733Z,9.88
2023-05-09T02:48:44.426Z,10.10
2023-05-09T02:50:46.703Z,10.60
2023-05-09T02:52:48.475Z,11.35
2023-05-09T02:54:50.167Z,10.27
2023-05-09T02:56:51.890Z,10.52
2023-05-09T02:58:53.643Z,10.45
2023-05-09T03:00:55.458Z,10.45
2023-05-09T03:02:57.251Z,10.07
2023-05-09T03:04:58.986Z,9.18
2023-05-09T03:07:00.728Z,9.23
2023-05-09T03:09:02.609Z,9.55
2023-05-09T03:11:04.318Z,8.50
2023-05-09T03:13:06.264Z,9.02
2023-05-09T03:15:09.154Z,11.27
2023-05-09T03:17:11.134Z,9.52
2023-05-09T03:19:12.868Z,10.25
2023-05-09T03:21:14.614Z,9.63
2023-05-09T03:23:16.468Z,10.10
2023-05-09T03:25:18.193Z,10.27
2023-05-09T03:27:19.954Z,10.23
2023-05-09T03:29:21.635Z,12.35
2023-05-09T03:31:23.797Z,10.13
2023-05-09T03:33:26.206Z,10.57
2023-05-09T03:35:27.959Z,10.13
2023-05-09T03:37:30.066Z,9.23
2023-05-09T03:39:32.013Z,11.07
2023-05-09T03:41:36.489Z,9.73
2023-05-09T03:43:38.230Z,10.80
2023-05-09T03:45:40.060Z,9.63
2023-05-09T03:47:41.900Z,9.57
2023-05-09T03:49:43.793Z,9.52
2023-05-09T03:51:47.481Z,8.82
2023-05-09T03:53:51.417Z,10.95
2023-05-09T03:55:53.238Z,10.43
2023-05-09T03:57:55.401Z,10.07
2023-05-09T03:59:57.189Z,10.82
2023-05-09T04:01:58.995Z,11.00
2023-05-09T04:04:00.819Z,10.77
2023-05-09T04:06:02.735Z,10.05
2023-05-09T04:08:04.868Z,10.73
2023-05-09T04:10:07.424Z,10.00
2023-05-09T04:12:09.327Z,10.63
2023-05-09T04:14:11.178Z,13.68
2023-05-09T04:16:12.895Z,15.57
2023-05-09T04:18:14.735Z,16.75
2023-05-09T04:20:16.461Z,13.65
2023-05-09T04:22:18.244Z,13.65
2023-05-09T04:24:26.568Z,13.98
2023-05-09T04:26:28.843Z,13.40
2023-05-09T04:28:30.506Z,12.27
2023-05-09T04:30:32.167Z,12.07
2023-05-09T04:32:33.936Z,10.60
2023-05-09T04:34:35.975Z,11.82
2023-05-09T04:36:37.687Z,11.05
2023-05-09T04:38:39.463Z,11.05
2023-05-09T04:40:41.238Z,12.02
2023-05-09T04:42:43.626Z,12.55
2023-05-09T04:44:45.332Z,12.77
2023-05-09T04:46:47.133Z,13.32
2023-05-09T04:48:48.834Z,12.80
2023-05-09T04:50:50.581Z,11.93
2023-05-09T04:52:52.428Z,13.43
2023-05-09T04:54:54.358Z,12.38
2023-05-09T04:57:03.201Z,12.15
2023-05-09T04:59:11.932Z,11.48
2023-05-09T05:01:13.762Z,12.45
2023-05-09T05:03:15.670Z,13.40
2023-05-09T05:05:17.414Z,13.63
2023-05-09T05:07:19.245Z,13.82
2023-05-09T05:09:21.557Z,15.40
2023-05-09T05:11:23.288Z,17.08
2023-05-09T05:13:25.202Z,15.10
2023-05-09T05:15:27.174Z,12.23
2023-05-09T05:17:30.371Z,15.00
2023-05-09T05:19:36.137Z,14.68
2023-05-09T05:21:42.538Z,16.40
2023-05-09T05:23:46.417Z,15.18
2023-05-09T05:25:48.700Z,18.00
2023-05-09T05:27:50.853Z,16.38
2023-05-09T05:29:52.673Z,17.88
2023-05-09T05:31:54.504Z,18.17
2023-05-09T05:33:56.298Z,16.85
2023-05-09T05:35:58.610Z,18.95
2023-05-09T05:38:00.343Z,19.52
2023-05-09T05:40:02.167Z,19.20
2023-05-09T05:42:04.057Z,19.08
2023-05-09T05:44:05.879Z,21.80
2023-05-09T05:46:10.709Z,19.73
2023-05-09T05:48:12.509Z,21.25
2023-05-09T05:50:14.416Z,23.13
2023-05-09T05:52:16.138Z,22.77
2023-05-09T05:54:17.880Z,22.48
2023-05-09T05:56:19.631Z,22.13
2023-05-09T05:58:21.372Z,25.50
2023-05-09T06:00:23.153Z,25.63
2023-05-09T06:02:25.071Z,26.83
2023-05-09T06:04:28.140Z,25.02
2023-05-09T06:06:30.026Z,25.98
2023-05-09T06:08:31.989Z,24.63
2023-05-09T06:10:33.798Z,26.48
2023-05-09T06:12:35.689Z,24.27
2023-05-09T06:14:37.535Z,24.38
2023-05-09T06:16:39.367Z,24.77
2023-05-09T06:18:41.149Z,23.63
2023-05-09T06:20:42.877Z,24.73
2023-05-09T06:22:44.930Z,24.00
2023-05-09T06:24:46.640Z,23.15
2023-05-09T06:26:50.455Z,22.92
2023-05-09T06:28:52.175Z,22.77
2023-05-09T06:30:54.025Z,21.35
2023-05-09T06:32:55.993Z,20.75
2023-05-09T06:34:57.888Z,21.73
2023-05-09T06:36:59.677Z,21.80
2023-05-09T06:39:01.734Z,21.45
2023-05-09T06:41:03.426Z,20.15
2023-05-09T06:43:05.192Z,20.00
2023-05-09T06:45:07.438Z,18.15
2023-05-09T06:47:09.677Z,21.60
2023-05-09T06:49:13.942Z,19.58
2023-05-09T06:51:16.521Z,18.75
2023-05-09T06:53:18.324Z,18.65
2023-05-09T06:55:20.163Z,19.00
2023-05-09T06:57:27.432Z,18.35
2023-05-09T06:59:30.413Z,17.45
2023-05-09T07:01:32.947Z,18.55
2023-05-09T07:03:35.310Z,18.27
2023-05-09T07:05:37.982Z,17.73
2023-05-09T07:07:43.642Z,17.52
2023-05-09T07:09:45.433Z,17.88
2023-05-09T07:11:47.930Z,18.67
2023-05-09T07:13:50.371Z,19.35
2023-05-09T07:15:53.994Z,19.25
2023-05-09T07:17:56.530Z,17.95
2023-05-09T07:19:58.460Z,19.75
2023-05-09T07:22:00.567Z,19.20
2023-05-09T07:24:02.956Z,18.50
2023-05-09T07:26:11.449Z,21.23
2023-05-09T07:28:13.370Z,16.38
2023-05-09T07:30:15.569Z,17.20
2023-05-09T07:32:17.897Z,16.52
2023-05-09T07:34:20.644Z,17.05
2023-05-09T07:36:23.479Z,15.85
2023-05-09T07:38:27.074Z,15.52
2023-05-09T07:40:33.881Z,15.68
2023-05-09T07:42:36.618Z,13.55
2023-05-09T07:44:38.465Z,15.07
2023-05-09T07:46:42.187Z,11.05
2023-05-09T07:48:43.974Z,7.80
2023-05-09T07:50:46.350Z,7.50
2023-05-09T07:52:48.451Z,6.43
2023-05-09T07:54:51.624Z,4.90
2023-05-09T07:57:01.023Z,4.43
2023-05-09T07:59:03.814Z,4.35
2023-05-09T08:01:06.416Z,3.63
2023-05-09T08:03:08.785Z,3.95
2023-05-09T08:05:12.824Z,3.40
2023-05-09T08:07:15.641Z,2.92
2023-05-09T08:09:20.476Z,3.70
2023-05-09T08:11:23.584Z,4.00
2023-05-09T08:13:26.102Z,4.30
2023-05-09T08:15:28.616Z,3.67
2023-05-09T08:17:31.170Z,3.78
2023-05-09T08:19:33.596Z,2.78
2023-05-09T08:21:35.703Z,3.40
2023-05-09T08:23:39.179Z,3.28
2023-05-09T08:25:42.374Z,3.13
2023-05-09T08:27:44.833Z,2.88
2023-05-09T08:29:47.621Z,4.38
2023-05-09T08:31:49.991Z,2.95
2023-05-09T08:33:54.681Z,3.08
2023-05-09T08:35:56.549Z,3.95
2023-05-09T08:37:59.329Z,2.50
2023-05-09T08:40:01.118Z,2.30
2023-05-09T08:42:03.228Z,2.10
2023-05-09T08:44:05.160Z,2.47
2023-05-09T08:46:08.647Z,3.40
2023-05-09T08:48:10.597Z,2.22
2023-05-09T08:50:15.575Z,2.38
2023-05-09T08:52:17.683Z,2.72
2023-05-09T08:54:22.169Z,2.10
2023-05-09T08:56:24.831Z,2.53
2023-05-09T08:58:33.745Z,2.97
2023-05-09T09:00:44.929Z,2.60
2023-05-09T09:02:56.984Z,2.70
2023-05-09T09:04:59.175Z,2.30
2023-05-09T09:07:04.436Z,2.70
2023-05-09T09:09:08.583Z,2.58
2023-05-09T09:11:22.226Z,2.40
2023-05-09T09:13:26.600Z,101.80
2023-05-09T09:15:34.995Z,4.97
2023-05-09T09:17:52.018Z,7.32
2023-05-09T09:19:59.921Z,4.32
2023-05-09T09:22:08.048Z,2.40
2023-05-09T09:24:15.792Z,2.38
2023-05-09T09:26:18.277Z,1.88
2023-05-09T09:28:21.134Z,1.92
2023-05-09T09:30:27.668Z,1.98
2023-05-09T09:32:44.061Z,1.83
2023-05-09T09:34:52.208Z,2.03
2023-05-09T09:36:57.309Z,2.00
2023-05-09T09:39:24.679Z,2.03
2023-05-09T09:41:40.293Z,2.72
2023-05-09T09:43:46.246Z,3.55
2023-05-09T09:45:54.832Z,2.03
2023-05-09T09:48:16.921Z,2.08
2023-05-09T09:50:23.713Z,1.83
2023-05-09T09:52:29.584Z,2.15
2023-05-09T09:54:35.330Z,2.80
2023-05-09T09:56:46.646Z,2.80
2023-05-09T09:58:48.989Z,1.88
2023-05-09T10:01:12.263Z,2.00
2023-05-09T10:03:20.442Z,2.63
2023-05-09T10:05:32.711Z,2.10
2023-05-09T10:07:35.593Z,1.80
2023-05-09T10:09:41.053Z,2.03
2023-05-09T10:11:42.772Z,2.30
2023-05-09T10:13:46.650Z,2.88
2023-05-09T10:15:53.548Z,2.08
2023-05-09T10:17:58.107Z,2.45
2023-05-09T10:20:04.233Z,2.63
2023-05-09T10:22:10.226Z,2.28
2023-05-09T10:24:11.991Z,2.53
2023-05-09T10:26:29.094Z,2.17
2023-05-09T10:28:33.438Z,2.17
2023-05-09T10:30:38.856Z,2.13
2023-05-09T10:32:48.950Z,1.92
2023-05-09T10:34:53.812Z,1.90
2023-05-09T10:36:55.831Z,2.10
2023-05-09T10:38:58.246Z,2.30
2023-05-09T10:41:01.457Z,2.13
2023-05-09T10:43:03.256Z,1.80
2023-05-09T10:45:06.826Z,2.00
2023-05-09T10:47:08.758Z,1.85
2023-05-09T10:49:14.308Z,2.60
2023-05-09T10:51:16.901Z,2.05
2023-05-09T10:53:19.204Z,1.50
2023-05-09T10:55:20.871Z,2.08
2023-05-09T10:57:23.789Z,1.90
2023-05-09T10:59:40.043Z,1.40
2023-05-09T11:01:41.787Z,1.70
2023-05-09T11:03:58.959Z,1.73
2023-05-09T11:06:00.855Z,2.28
2023-05-09T11:08:21.341Z,2.40
2023-05-09T11:10:23.022Z,1.90
2023-05-09T11:12:25.335Z,2.00
2023-05-09T11:14:35.928Z,2.10
2023-05-09T11:16:57.650Z,2.08
2023-05-09T11:18:59.288Z,1.80
2023-05-09T11:21:09.298Z,2.05
2023-05-09T11:23:17.616Z,1.67
2023-05-09T11:25:26.181Z,2.00
2023-05-09T11:27:29.014Z,1.60
2023-05-09T11:29:30.724Z,1.92
2023-05-09T11:31:33.633Z,1.77
2023-05-09T11:33:37.053Z,1.67
2023-05-09T11:35:39.092Z,1.50
2023-05-09T11:38:00.349Z,1.48
2023-05-09T11:40:05.664Z,1.40
2023-05-09T11:42:07.859Z,1.27
2023-05-09T11:44:27.453Z,1.08
2023-05-09T11:46:29.410Z,2.10
2023-05-09T11:48:33.250Z,1.05
2023-05-09T11:50:34.924Z,1.35
2023-05-09T11:52:38.660Z,1.10
2023-05-09T11:54:41.980Z,1.02
2023-05-09T11:56:43.687Z,1.08
2023-05-09T11:58:47.103Z,1.10
2023-05-09T12:00:49.147Z,1.10
2023-05-09T12:02:52.762Z,1.20
2023-05-09T12:05:07.484Z,1.25
2023-05-09T12:07:11.726Z,0.98
2023-05-09T12:09:14.811Z,1.05
2023-05-09T12:11:16.752Z,1.50
2023-05-09T12:13:19.431Z,1.20
2023-05-09T12:15:22.423Z,1.20
2023-05-09T12:17:31.190Z,1.13
2023-05-09T12:19:35.417Z,1.40
2023-05-09T12:21:40.722Z,1.35
2023-05-09T12:23:50.889Z,1.40
2023-05-09T12:25:56.101Z,1.38
2023-05-09T12:27:58.719Z,1.50
2023-05-09T12:30:08.834Z,1.40
2023-05-09T12:32:11.078Z,1.35
2023-05-09T12:34:15.274Z,1.20
2023-05-09T12:36:18.684Z,1.20
2023-05-09T12:38:24.762Z,1.63
2023-05-09T12:40:27.148Z,1.02
2023-05-09T12:42:34.300Z,1.25
2023-05-09T12:44:38.390Z,1.60
2023-05-09T12:46:40.136Z,1.20
2023-05-09T12:48:43.176Z,1.02
2023-05-09T12:50:48.543Z,1.20
2023-05-09T12:53:02.887Z,1.10
2023-05-09T12:55:22.041Z,1.30
2023-05-09T12:57:31.525Z,1.48
2023-05-09T12:59:36.473Z,1.30
2023-05-09T13:01:39.289Z,1.40
2023-05-09T13:03:41.901Z,1.77
2023-05-09T13:06:08.353Z,1.50
2023-05-09T13:08:11.408Z,1.60
2023-05-09T13:10:23.777Z,1.23
2023-05-09T13:12:26.476Z,1.20
2023-05-09T13:14:32.839Z,1.05
2023-05-09T13:16:36.582Z,1.00
2023-05-09T13:18:41.071Z,1.30
2023-05-09T13:20:42.918Z,1.30
2023-05-09T13:22:46.418Z,1.13
2023-05-09T13:24:48.158Z,1.02
2023-05-09T13:26:58.094Z,1.15
2023-05-09T13:28:59.868Z,1.23
2023-05-09T13:31:01.630Z,0.98
2023-05-09T13:33:16.886Z,1.27
2023-05-09T13:35:24.970Z,1.00
2023-05-09T13:37:27.695Z,1.10
2023-05-09T13:39:30.029Z,1.33
2023-05-09T13:41:33.577Z,1.33
2023-05-09T13:43:36.119Z,1.30
2023-05-09T13:45:37.924Z,0.90
2023-05-09T13:47:39.644Z,1.10
2023-05-09T13:49:41.376Z,1.27
2023-05-09T13:51:43.102Z,1.30
2023-05-09T13:53:44.947Z,2.00
2023-05-09T13:55:47.257Z,3.97
2023-05-09T13:57:48.999Z,3.47
2023-05-09T13:59:50.740Z,3.70
2023-05-09T14:01:52.450Z,2.53
2023-05-09T14:03:54.375Z,2.78
2023-05-09T14:05:56.132Z,2.38
2023-05-09T14:07:58.329Z,2.33
2023-05-09T14:10:11.480Z,2.17
2023-05-09T14:12:15.463Z,1.77
2023-05-09T14:14:18.904Z,1.70
2023-05-09T14:16:21.654Z,2.13
2023-05-09T14:18:23.683Z,2.40
2023-05-09T14:20:25.520Z,3.22
2023-05-09T14:22:27.265Z,2.22
2023-05-09T14:24:31.244Z,2.03
2023-05-09T14:26:33.238Z,2.67
2023-05-09T14:28:37.469Z,2.03
2023-05-09T14:30:40.719Z,1.80
2023-05-09T14:32:43.961Z,2.03
2023-05-09T14:34:51.557Z,2.10
2023-05-09T14:36:54.363Z,2.10
2023-05-09T14:38:56.173Z,1.77
2023-05-09T14:41:00.426Z,1.73
2023-05-09T14:43:03.032Z,2.08
2023-05-09T14:45:13.187Z,2.28
2023-05-09T14:47:22.877Z,2.22
2023-05-09T14:49:24.796Z,2.20
2023-05-09T14:51:28.081Z,2.28
2023-05-09T14:53:37.840Z,2.55
2023-05-09T14:55:40.378Z,2.88
2023-05-09T14:57:42.826Z,2.30
2023-05-09T14:59:46.689Z,1.80
2023-05-09T15:01:53.524Z,1.88
2023-05-09T15:03:56.277Z,2.58
2023-05-09T15:05:58.806Z,2.20
2023-05-09T15:08:01.158Z,2.42
2023-05-09T15:10:06.088Z,2.10
2023-05-09T15:12:09.105Z,1.30
2023-05-09T15:14:10.848Z,1.30
2023-05-09T15:16:15.552Z,1.58
2023-05-09T15:18:18.627Z,1.60
2023-05-09T15:20:21.305Z,1.58
2023-05-09T15:22:23.680Z,1.48
2023-05-09T15:24:27.299Z,2.38
2023-05-09T15:26:29.497Z,1.92
2023-05-09T15:28:32.199Z,1.92
2023-05-09T15:30:35.753Z,2.17
2023-05-09T15:32:41.561Z,1.92
2023-05-09T15:34:43.778Z,2.50
2023-05-09T15:36:45.926Z,2.13
2023-05-09T15:38:49.970Z,2.35
2023-05-09T15:40:54.766Z,2.22
2023-05-09T15:42:56.598Z,1.52
2023-05-09T15:45:06.356Z,2.25
2023-05-09T15:47:09.246Z,2.17
2023-05-09T15:49:11.782Z,2.38
2023-05-09T15:51:16.921Z,2.10
2023-05-09T15:53:19.327Z,2.00
2023-05-09T15:55:21.895Z,2.10
2023-05-09T15:57:27.555Z,2.58
2023-05-09T15:59:29.277Z,2.38
2023-05-09T16:01:32.723Z,2.58
2023-05-09T16:03:36.467Z,3.10
2023-05-09T16:05:41.059Z,5.97
2023-05-09T16:07:46.631Z,4.97
2023-05-09T16:09:48.451Z,4.45
2023-05-09T16:11:50.962Z,3.05
2023-05-09T16:13:52.699Z,2.65
2023-05-09T16:15:54.623Z,2.47
2023-05-09T16:17:56.904Z,2.38
2023-05-09T16:19:59.039Z,2.53
2023-05-09T16:22:00.932Z,2.33
2023-05-09T16:24:03.390Z,2.00
2023-05-09T16:26:06.076Z,2.17
2023-05-09T16:28:08.576Z,1.83
2023-05-09T16:30:11.055Z,2.53
2023-05-09T16:32:12.834Z,2.38
2023-05-09T16:34:14.632Z,2.25
2023-05-09T16:36:16.344Z,2.75
2023-05-09T16:38:18.983Z,2.60
2023-05-09T16:40:21.382Z,2.63
2023-05-09T16:42:23.316Z,2.72
2023-05-09T16:44:26.017Z,2.75
2023-05-09T16:46:27.756Z,3.05
2023-05-09T16:48:29.696Z,2.45
2023-05-09T16:50:31.527Z,2.55
2023-05-09T16:52:33.247Z,3.55
2023-05-09T16:54:35.013Z,2.50
2023-05-09T16:56:37.191Z,2.30
2023-05-09T16:58:39.259Z,3.05
2023-05-09T17:00:41.043Z,3.45
2023-05-09T17:02:42.940Z,3.13
2023-05-09T17:04:44.769Z,3.58
2023-05-09T17:06:51.904Z,2.72
2023-05-09T17:08:53.849Z,2.28
2023-05-09T17:10:56.092Z,2.28
2023-05-09T17:12:58.367Z,2.10
2023-05-09T17:15:00.183Z,2.10
2023-05-09T17:17:02.100Z,2.15
2023-05-09T17:19:03.925Z,2.10
2023-05-09T17:21:06.791Z,2.40
2023-05-09T17:23:10.382Z,2.10
2023-05-09T17:25:12.647Z,2.15
2023-05-09T17:27:14.448Z,2.60
2023-05-09T17:29:16.201Z,4.32
2023-05-09T17:31:18.181Z,4.70
2023-05-09T17:33:20.786Z,3.05
2023-05-09T17:35:23.025Z,4.40
2023-05-09T17:37:24.805Z,2.80
2023-05-09T17:39:27.212Z,2.63
2023-05-09T17:41:29.076Z,2.05
2023-05-09T17:43:32.000Z,3.50
2023-05-09T17:45:33.794Z,4.07
2023-05-09T17:47:35.649Z,3.38
2023-05-09T17:49:37.750Z,4.22
2023-05-09T17:51:39.941Z,6.20
2023-05-09T17:53:41.724Z,7.80
2023-05-09T17:55:43.527Z,4.15
2023-05-09T17:57:45.663Z,5.78
2023-05-09T17:59:48.040Z,3.08
2023-05-09T18:01:49.856Z,2.22
2023-05-09T18:03:51.828Z,1.83
2023-05-09T18:05:53.766Z,1.85
2023-05-09T18:07:56.838Z,1.70
2023-05-09T18:09:58.791Z,1.63
2023-05-09T18:12:00.575Z,1.52
2023-05-09T18:14:03.005Z,1.63
2023-05-09T18:16:04.946Z,1.40
2023-05-09T18:18:07.768Z,1.40
2023-05-09T18:20:09.928Z,1.60
2023-05-09T18:22:12.048Z,1.55
2023-05-09T18:24:16.943Z,1.45
2023-05-09T18:26:27.542Z,1.30
2023-05-09T18:28:29.483Z,1.48
2023-05-09T18:30:31.233Z,1.42
2023-05-09T18:32:33.271Z,1.40
2023-05-09T18:34:35.095Z,1.20
2023-05-09T18:36:36.841Z,1.35
2023-05-09T18:38:38.836Z,1.40
2023-05-09T18:40:40.582Z,1.50
2023-05-09T18:42:42.462Z,1.02
2023-05-09T18:44:44.370Z,1.15
2023-05-09T18:46:46.175Z,1.52
2023-05-09T18:48:50.323Z,1.40
2023-05-09T18:50:55.120Z,1.00
2023-05-09T18:52:57.029Z,1.52
2023-05-09T18:54:58.847Z,1.23
2023-05-09T18:57:00.657Z,1.15
2023-05-09T18:59:02.328Z,1.20
2023-05-09T19:01:04.749Z,1.40
2023-05-09T19:03:06.841Z,1.25
2023-05-09T19:05:15.313Z,1.30
2023-05-09T19:07:17.136Z,1.20
2023-05-09T19:09:18.985Z,1.02
2023-05-09T19:11:20.746Z,1.02
2023-05-09T19:13:22.731Z,1.27
2023-05-09T19:15:24.606Z,1.05
2023-05-09T19:17:26.688Z,1.35
2023-05-09T19:19:28.605Z,1.10
2023-05-09T19:21:31.798Z,1.00
2023-05-09T19:23:33.718Z,1.50
2023-05-09T19:25:37.114Z,1.27
2023-05-09T19:27:38.913Z,1.60
2023-05-09T19:29:40.587Z,1.20
2023-05-09T19:31:42.376Z,0.90
2023-05-09T19:33:47.671Z,1.15
2023-05-09T19:35:49.781Z,1.10
2023-05-09T19:38:01.445Z,1.10
2023-05-09T19:40:07.071Z,1.58
2023-05-09T19:42:08.943Z,1.55
2023-05-09T19:44:10.865Z,0.90
2023-05-09T19:46:12.710Z,1.38
2023-05-09T19:48:23.824Z,1.20
2023-05-09T19:50:25.674Z,1.20
2023-05-09T19:52:29.675Z,1.45
2023-05-09T19:54:32.044Z,1.10
2023-05-09T19:56:33.921Z,1.42
2023-05-09T19:58:35.715Z,1.52
2023-05-09T20:00:38.944Z,1.00
2023-05-09T20:02:40.763Z,1.27
2023-05-09T20:04:49.651Z,1.40
2023-05-09T20:06:51.653Z,0.82
2023-05-09T20:08:53.596Z,1.20
2023-05-09T20:10:57.509Z,1.30
2023-05-09T20:12:59.551Z,1.23
2023-05-09T20:15:01.723Z,0.93
2023-05-09T20:17:05.345Z,0.80
2023-05-09T20:19:07.770Z,1.10
2023-05-09T20:21:10.465Z,0.82
2023-05-09T20:23:12.252Z,0.93
2023-05-09T20:25:14.840Z,1.10
2023-05-09T20:27:16.561Z,0.80
2023-05-09T20:29:18.532Z,1.50
2023-05-09T20:31:20.219Z,2.05
2023-05-09T20:33:22.121Z,0.80
2023-05-09T20:35:23.946Z,0.77
2023-05-09T20:37:25.696Z,0.70
2023-05-09T20:39:27.360Z,0.63
2023-05-09T20:41:29.973Z,0.55
2023-05-09T20:43:31.766Z,0.80
2023-05-09T20:45:33.684Z,0.60
2023-05-09T20:47:35.655Z,0.60
2023-05-09T20:49:37.476Z,0.60
2023-05-09T20:51:42.715Z,0.60
2023-05-09T20:53:44.515Z,0.70
2023-05-09T20:55:47.380Z,0.70
2023-05-09T20:57:50.817Z,0.93
2023-05-09T20:59:52.601Z,0.65
2023-05-09T21:01:55.929Z,0.65
2023-05-09T21:03:59.313Z,0.60
2023-05-09T21:06:01.060Z,0.55
2023-05-09T21:08:02.808Z,0.65
2023-05-09T21:10:04.977Z,0.90
2023-05-09T21:12:07.795Z,0.60
2023-05-09T21:14:11.018Z,0.75
2023-05-09T21:16:12.744Z,0.60
2023-05-09T21:18:14.577Z,0.60
2023-05-09T21:20:17.246Z,0.73
2023-05-09T21:22:19.238Z,0.80
2023-05-09T21:24:21.099Z,0.70
2023-05-09T21:26:23.287Z,0.85
2023-05-09T21:28:25.639Z,0.90
2023-05-09T21:30:27.385Z,0.90
2023-05-09T21:32:29.146Z,0.90
2023-05-09T21:34:30.898Z,0.80
2023-05-09T21:36:32.616Z,1.05
2023-05-09T21:38:34.408Z,1.00
2023-05-09T21:40:36.218Z,0.70
2023-05-09T21:42:40.440Z,0.80
2023-05-09T21:44:42.187Z,1.08
2023-05-09T21:46:46.574Z,1.00
2023-05-09T21:48:48.337Z,0.93
2023-05-09T21:50:50.378Z,1.02
2023-05-09T21:52:52.608Z,1.10
2023-05-09T21:54:54.503Z,0.90
2023-05-09T21:56:56.251Z,0.95
2023-05-09T21:58:57.957Z,1.27
2023-05-09T22:00:59.698Z,1.38
2023-05-09T22:03:01.661Z,1.00
2023-05-09T22:05:03.817Z,1.23
2023-05-09T22:07:05.706Z,1.15
2023-05-09T22:09:07.661Z,1.20
2023-05-09T22:11:09.435Z,0.93
2023-05-09T22:13:11.205Z,1.33
2023-05-09T22:15:13.269Z,1.45
2023-05-09T22:17:15.618Z,1.50
2023-05-09T22:19:19.323Z,1.40
2023-05-09T22:21:22.325Z,1.52
2023-05-09T22:23:24.142Z,1.70
2023-05-09T22:25:25.990Z,1.92
2023-05-09T22:27:27.704Z,1.27
2023-05-09T22:29:29.509Z,1.88
2023-05-09T22:31:31.282Z,2.58
2023-05-09T22:33:33.560Z,1.50
2023-05-09T22:35:35.313Z,2.00
2023-05-09T22:37:37.275Z,2.03
2023-05-09T22:39:39.430Z,2.45
2023-05-09T22:41:41.176Z,1.67
2023-05-09T22:43:43.043Z,1.90
2023-05-09T22:45:44.808Z,2.00
2023-05-09T22:47:46.659Z,1.73
2023-05-09T22:49:49.591Z,1.88
2023-05-09T22:51:51.376Z,1.92
2023-05-09T22:53:53.342Z,1.98
2023-05-09T22:55:55.106Z,1.65
2023-05-09T22:57:56.929Z,2.03
2023-05-09T22:59:58.675Z,1.90
2023-05-09T23:02:00.495Z,1.80
2023-05-09T23:04:02.277Z,2.20
2023-05-09T23:06:04.244Z,2.10
2023-05-09T23:08:06.170Z,1.50
2023-05-09T23:10:08.264Z,2.08
2023-05-09T23:12:10.770Z,1.60
2023-05-09T23:14:12.547Z,1.95
2023-05-09T23:16:14.467Z,1.60
2023-05-09T23:18:16.287Z,1.73
2023-05-09T23:20:18.420Z,1.65
2023-05-09T23:22:20.290Z,1.70
2023-05-09T23:24:22.119Z,1.70
2023-05-09T23:26:23.834Z,1.60
2023-05-09T23:28:25.590Z,1.70
2023-05-09T23:30:27.449Z,1.70
2023-05-09T23:32:29.311Z,1.50
2023-05-09T23:34:31.603Z,1.58
2023-05-09T23:36:33.354Z,1.42
2023-05-09T23:38:35.697Z,1.83
2023-05-09T23:40:38.612Z,1.52
2023-05-09T23:42:40.348Z,1.45
2023-05-09T23:44:42.116Z,1.20
2023-05-09T23:46:43.968Z,1.25
2023-05-09T23:48:45.823Z,1.45
2023-05-09T23:50:47.881Z,1.27
2023-05-09T23:52:51.249Z,1.55
2023-05-09T23:54:53.060Z,1.50
2023-05-09T23:56:57.399Z,1.17
2023-05-09T23:58:59.192Z,1.25
